sensor_id;sensor_type;location;lat;lon;timestamp;pressure;altitude;pressure_sealevel;temperature;humidity
66398;BME280;54877;51.504;3.894;2023-05-02T00:00:46;102189.31;;;14.20;67.61
66398;BME280;54877;51.504;3.894;2023-05-02T00:03:11;102188.47;;;14.19;67.57
66398;BME280;54877;51.504;3.894;2023-05-02T00:05:37;102181.31;;;14.20;67.29
66398;BME280;54877;51.504;3.894;2023-05-02T00:08:02;102182.16;;;14.22;66.88
66398;BME280;54877;51.504;3.894;2023-05-02T00:10:28;102184.69;;;14.25;67.08
66398;BME280;54877;51.504;3.894;2023-05-02T00:12:53;102198.78;;;14.27;66.98
66398;BME280;54877;51.504;3.894;2023-05-02T00:15:18;102194.34;;;14.27;67.00
66398;BME280;54877;51.504;3.894;2023-05-02T00:17:44;102188.19;;;14.25;66.96
66398;BME280;54877;51.504;3.894;2023-05-02T00:20:10;102189.19;;;14.23;67.04
66398;BME280;54877;51.504;3.894;2023-05-02T00:22:36;102197.31;;;14.20;66.89
66398;BME280;54877;51.504;3.894;2023-05-02T00:25:01;102204.59;;;14.16;67.28
66398;BME280;54877;51.504;3.894;2023-05-02T00:27:28;102201.31;;;14.09;67.48
66398;BME280;54877;51.504;3.894;2023-05-02T00:29:54;102200.44;;;14.09;67.41
66398;BME280;54877;51.504;3.894;2023-05-02T00:32:19;102210.56;;;14.01;67.51
66398;BME280;54877;51.504;3.894;2023-05-02T00:34:45;102209.97;;;13.94;67.80
66398;BME280;54877;51.504;3.894;2023-05-02T00:37:10;102201.78;;;13.99;67.55
66398;BME280;54877;51.504;3.894;2023-05-02T00:39:37;102204.34;;;14.00;67.48
66398;BME280;54877;51.504;3.894;2023-05-02T00:42:02;102202.50;;;14.02;67.51
66398;BME280;54877;51.504;3.894;2023-05-02T00:44:28;102200.38;;;14.10;67.07
66398;BME280;54877;51.504;3.894;2023-05-02T00:46:54;102208.31;;;14.12;66.80
66398;BME280;54877;51.504;3.894;2023-05-02T00:49:20;102209.44;;;14.06;67.31
66398;BME280;54877;51.504;3.894;2023-05-02T00:51:45;102210.97;;;14.12;67.20
66398;BME280;54877;51.504;3.894;2023-05-02T00:54:11;102211.84;;;14.12;66.92
66398;BME280;54877;51.504;3.894;2023-05-02T00:56:37;102209.91;;;14.16;67.02
66398;BME280;54877;51.504;3.894;2023-05-02T00:59:02;102209.03;;;14.16;67.02
66398;BME280;54877;51.504;3.894;2023-05-02T01:04:10;102216.78;;;14.22;66.76
66398;BME280;54877;51.504;3.894;2023-05-02T01:06:57;102211.38;;;14.23;66.71
66398;BME280;54877;51.504;3.894;2023-05-02T01:09:28;102223.09;;;14.19;66.85
66398;BME280;54877;51.504;3.894;2023-05-02T01:12:27;102221.28;;;14.20;66.92
66398;BME280;54877;51.504;3.894;2023-05-02T01:14:58;102223.22;;;14.16;66.88
66398;BME280;54877;51.504;3.894;2023-05-02T01:17:30;102223.03;;;14.21;66.70
66398;BME280;54877;51.504;3.894;2023-05-02T01:19:59;102222.91;;;14.24;66.58
66398;BME280;54877;51.504;3.894;2023-05-02T01:22:29;102223.56;;;14.29;66.43
66398;BME280;54877;51.504;3.894;2023-05-02T01:25:13;102230.56;;;14.31;66.05
66398;BME280;54877;51.504;3.894;2023-05-02T01:27:50;102225.03;;;14.16;66.40
66398;BME280;54877;51.504;3.894;2023-05-02T01:30:35;102222.06;;;14.01;66.65
66398;BME280;54877;51.504;3.894;2023-05-02T01:33:05;102232.59;;;14.04;66.33
66398;BME280;54877;51.504;3.894;2023-05-02T01:35:34;102232.97;;;13.95;66.63
66398;BME280;54877;51.504;3.894;2023-05-02T01:38:01;102233.75;;;13.77;67.08
66398;BME280;54877;51.504;3.894;2023-05-02T01:40:28;102244.63;;;13.93;66.55
66398;BME280;54877;51.504;3.894;2023-05-02T01:42:54;102243.19;;;13.84;67.11
66398;BME280;54877;51.504;3.894;2023-05-02T01:45:21;102233.63;;;13.80;67.13
66398;BME280;54877;51.504;3.894;2023-05-02T01:47:48;102230.28;;;13.75;67.04
66398;BME280;54877;51.504;3.894;2023-05-02T01:50:16;102233.63;;;13.80;66.90
66398;BME280;54877;51.504;3.894;2023-05-02T01:52:45;102240.78;;;13.78;66.62
66398;BME280;54877;51.504;3.894;2023-05-02T01:55:14;102244.31;;;13.79;66.28
66398;BME280;54877;51.504;3.894;2023-05-02T01:57:41;102240.63;;;13.61;66.76
66398;BME280;54877;51.504;3.894;2023-05-02T02:00:08;102245.56;;;13.70;66.46
66398;BME280;54877;51.504;3.894;2023-05-02T02:02:35;102242.66;;;13.76;66.28
66398;BME280;54877;51.504;3.894;2023-05-02T02:05:03;102243.28;;;13.83;66.02
66398;BME280;54877;51.504;3.894;2023-05-02T02:07:30;102246.97;;;13.79;66.01
66398;BME280;54877;51.504;3.894;2023-05-02T02:09:56;102261.03;;;13.82;66.13
66398;BME280;54877;51.504;3.894;2023-05-02T02:14:48;102258.00;;;13.91;66.14
66398;BME280;54877;51.504;3.894;2023-05-02T02:17:24;102254.34;;;13.94;66.13
66398;BME280;54877;51.504;3.894;2023-05-02T02:19:54;102257.72;;;13.97;65.86
66398;BME280;54877;51.504;3.894;2023-05-02T02:22:20;102256.63;;;14.03;65.77
66398;BME280;54877;51.504;3.894;2023-05-02T02:24:50;102259.09;;;14.07;65.77
66398;BME280;54877;51.504;3.894;2023-05-02T02:27:17;102256.38;;;14.09;65.63
66398;BME280;54877;51.504;3.894;2023-05-02T02:29:43;102254.69;;;14.06;65.89
66398;BME280;54877;51.504;3.894;2023-05-02T02:32:08;102261.34;;;13.96;66.37
66398;BME280;54877;51.504;3.894;2023-05-02T02:34:33;102266.22;;;14.07;66.02
66398;BME280;54877;51.504;3.894;2023-05-02T02:42:54;102269.03;;;13.82;67.30
66398;BME280;54877;51.504;3.894;2023-05-02T02:53:30;102286.47;;;13.89;67.28
66398;BME280;54877;51.504;3.894;2023-05-02T02:56:01;102287.16;;;13.73;67.59
66398;BME280;54877;51.504;3.894;2023-05-02T03:01:02;102291.91;;;13.86;66.65
66398;BME280;54877;51.504;3.894;2023-05-02T03:03:31;102295.41;;;13.88;66.59
66398;BME280;54877;51.504;3.894;2023-05-02T03:05:58;102302.56;;;13.86;66.79
66398;BME280;54877;51.504;3.894;2023-05-02T03:08:24;102306.53;;;13.76;67.43
66398;BME280;54877;51.504;3.894;2023-05-02T03:10:50;102298.50;;;13.78;67.15
66398;BME280;54877;51.504;3.894;2023-05-02T03:13:15;102301.09;;;13.79;67.13
66398;BME280;54877;51.504;3.894;2023-05-02T03:18:18;102310.63;;;13.85;66.93
66398;BME280;54877;51.504;3.894;2023-05-02T03:20:43;102309.19;;;13.76;66.84
66398;BME280;54877;51.504;3.894;2023-05-02T03:23:09;102316.88;;;13.84;66.03
66398;BME280;54877;51.504;3.894;2023-05-02T03:25:35;102322.03;;;13.88;65.94
66398;BME280;54877;51.504;3.894;2023-05-02T03:28:00;102318.25;;;13.72;66.47
66398;BME280;54877;51.504;3.894;2023-05-02T03:30:26;102326.63;;;13.62;66.39
66398;BME280;54877;51.504;3.894;2023-05-02T03:32:52;102337.59;;;13.76;65.95
66398;BME280;54877;51.504;3.894;2023-05-02T03:35:17;102330.00;;;13.67;65.81
66398;BME280;54877;51.504;3.894;2023-05-02T03:37:43;102337.72;;;13.73;65.70
66398;BME280;54877;51.504;3.894;2023-05-02T03:40:09;102339.53;;;13.72;65.72
66398;BME280;54877;51.504;3.894;2023-05-02T03:42:35;102345.25;;;13.62;66.22
66398;BME280;54877;51.504;3.894;2023-05-02T03:45:04;102345.88;;;13.68;65.85
66398;BME280;54877;51.504;3.894;2023-05-02T03:47:30;102346.88;;;13.66;65.60
66398;BME280;54877;51.504;3.894;2023-05-02T03:49:55;102350.66;;;13.60;65.38
66398;BME280;54877;51.504;3.894;2023-05-02T03:52:21;102351.66;;;13.56;65.35
66398;BME280;54877;51.504;3.894;2023-05-02T03:54:47;102349.28;;;13.50;65.16
66398;BME280;54877;51.504;3.894;2023-05-02T03:57:12;102354.69;;;13.47;65.42
66398;BME280;54877;51.504;3.894;2023-05-02T03:59:38;102361.91;;;13.43;64.91
66398;BME280;54877;51.504;3.894;2023-05-02T04:02:05;102363.66;;;13.44;64.89
66398;BME280;54877;51.504;3.894;2023-05-02T04:04:31;102355.50;;;13.49;64.29
66398;BME280;54877;51.504;3.894;2023-05-02T04:06:56;102360.03;;;13.47;64.03
66398;BME280;54877;51.504;3.894;2023-05-02T04:09:21;102364.25;;;13.52;63.71
66398;BME280;54877;51.504;3.894;2023-05-02T04:11:49;102368.88;;;13.47;63.57
66398;BME280;54877;51.504;3.894;2023-05-02T04:14:14;102371.34;;;13.52;63.63
66398;BME280;54877;51.504;3.894;2023-05-02T04:16:40;102375.03;;;13.48;63.37
66398;BME280;54877;51.504;3.894;2023-05-02T04:19:05;102366.16;;;13.49;63.11
66398;BME280;54877;51.504;3.894;2023-05-02T04:21:30;102363.19;;;13.57;63.07
66398;BME280;54877;51.504;3.894;2023-05-02T04:23:56;102366.16;;;13.49;63.09
66398;BME280;54877;51.504;3.894;2023-05-02T04:26:21;102358.38;;;13.43;62.79
66398;BME280;54877;51.504;3.894;2023-05-02T04:28:46;102359.84;;;13.51;62.25
66398;BME280;54877;51.504;3.894;2023-05-02T04:31:12;102363.78;;;13.41;62.26
66398;BME280;54877;51.504;3.894;2023-05-02T04:33:37;102368.53;;;13.33;62.43
66398;BME280;54877;51.504;3.894;2023-05-02T04:36:02;102381.63;;;13.38;62.54
66398;BME280;54877;51.504;3.894;2023-05-02T04:38:28;102407.53;;;13.33;62.49
66398;BME280;54877;51.504;3.894;2023-05-02T04:40:53;102407.53;;;13.33;62.46
66398;BME280;54877;51.504;3.894;2023-05-02T04:43:19;102406.28;;;13.43;62.35
66398;BME280;54877;51.504;3.894;2023-05-02T04:45:44;102424.13;;;13.39;62.21
66398;BME280;54877;51.504;3.894;2023-05-02T04:48:10;102433.94;;;13.39;62.00
66398;BME280;54877;51.504;3.894;2023-05-02T04:50:36;102433.56;;;13.48;62.01
66398;BME280;54877;51.504;3.894;2023-05-02T04:53:01;102427.63;;;13.41;61.99
66398;BME280;54877;51.504;3.894;2023-05-02T04:55:26;102440.00;;;13.18;62.44
66398;BME280;54877;51.504;3.894;2023-05-02T04:57:52;102441.19;;;13.34;62.31
66398;BME280;54877;51.504;3.894;2023-05-02T05:00:17;102440.25;;;13.36;62.30
66398;BME280;54877;51.504;3.894;2023-05-02T05:02:42;102449.91;;;13.39;61.92
66398;BME280;54877;51.504;3.894;2023-05-02T05:05:08;102448.03;;;13.41;61.40
66398;BME280;54877;51.504;3.894;2023-05-02T05:07:33;102455.22;;;13.39;61.43
66398;BME280;54877;51.504;3.894;2023-05-02T05:09:59;102450.69;;;13.41;61.28
66398;BME280;54877;51.504;3.894;2023-05-02T05:12:24;102457.16;;;13.34;60.68
66398;BME280;54877;51.504;3.894;2023-05-02T05:14:49;102458.19;;;13.30;60.39
66398;BME280;54877;51.504;3.894;2023-05-02T05:17:15;102471.53;;;13.28;60.05
66398;BME280;54877;51.504;3.894;2023-05-02T05:19:41;102470.41;;;13.35;59.58
66398;BME280;54877;51.504;3.894;2023-05-02T05:22:06;102463.63;;;13.27;59.48
66398;BME280;54877;51.504;3.894;2023-05-02T05:24:32;102462.81;;;13.25;59.20
66398;BME280;54877;51.504;3.894;2023-05-02T05:26:57;102466.94;;;13.33;59.35
66398;BME280;54877;51.504;3.894;2023-05-02T05:29:23;102457.81;;;13.40;58.96
66398;BME280;54877;51.504;3.894;2023-05-02T05:31:48;102483.31;;;13.46;58.72
66398;BME280;54877;51.504;3.894;2023-05-02T05:34:13;102472.66;;;13.47;58.78
66398;BME280;54877;51.504;3.894;2023-05-02T05:36:39;102474.47;;;13.45;58.79
66398;BME280;54877;51.504;3.894;2023-05-02T05:39:05;102478.31;;;13.37;59.10
66398;BME280;54877;51.504;3.894;2023-05-02T05:41:30;102487.34;;;13.33;59.24
66398;BME280;54877;51.504;3.894;2023-05-02T05:43:57;102489.69;;;13.42;59.18
66398;BME280;54877;51.504;3.894;2023-05-02T05:46:22;102493.28;;;13.41;59.21
66398;BME280;54877;51.504;3.894;2023-05-02T05:48:48;102503.50;;;13.53;59.62
66398;BME280;54877;51.504;3.894;2023-05-02T05:51:13;102505.09;;;13.57;59.27
66398;BME280;54877;51.504;3.894;2023-05-02T05:53:38;102507.44;;;13.66;58.97
66398;BME280;54877;51.504;3.894;2023-05-02T05:56:07;102516.56;;;13.59;58.88
66398;BME280;54877;51.504;3.894;2023-05-02T05:58:33;102517.81;;;13.74;58.77
66398;BME280;54877;51.504;3.894;2023-05-02T06:00:58;102532.50;;;13.84;58.53
66398;BME280;54877;51.504;3.894;2023-05-02T06:03:24;102527.28;;;13.81;58.15
66398;BME280;54877;51.504;3.894;2023-05-02T06:05:50;102532.50;;;13.84;58.25
66398;BME280;54877;51.504;3.894;2023-05-02T06:08:15;102537.22;;;13.77;57.82
66398;BME280;54877;51.504;3.894;2023-05-02T06:10:40;102530.44;;;13.92;57.69
66398;BME280;54877;51.504;3.894;2023-05-02T06:13:06;102537.50;;;13.93;57.20
66398;BME280;54877;51.504;3.894;2023-05-02T06:15:34;102538.53;;;14.13;56.38
66398;BME280;54877;51.504;3.894;2023-05-02T06:17:59;102526.09;;;14.37;56.06
66398;BME280;54877;51.504;3.894;2023-05-02T06:20:25;102522.69;;;14.55;54.52
66398;BME280;54877;51.504;3.894;2023-05-02T06:22:50;102525.44;;;14.76;53.21
66398;BME280;54877;51.504;3.894;2023-05-02T06:25:16;102535.84;;;14.60;53.01
66398;BME280;54877;51.504;3.894;2023-05-02T06:27:41;102541.75;;;14.68;52.80
66398;BME280;54877;51.504;3.894;2023-05-02T06:30:06;102538.19;;;14.67;52.88
66398;BME280;54877;51.504;3.894;2023-05-02T06:32:32;102546.75;;;14.76;52.93
66398;BME280;54877;51.504;3.894;2023-05-02T06:34:58;102549.00;;;14.86;52.57
66398;BME280;54877;51.504;3.894;2023-05-02T06:37:24;102556.72;;;14.94;52.67
66398;BME280;54877;51.504;3.894;2023-05-02T06:39:49;102555.44;;;15.24;52.76
66398;BME280;54877;51.504;3.894;2023-05-02T06:42:14;102565.25;;;15.23;52.35
66398;BME280;54877;51.504;3.894;2023-05-02T06:44:40;102560.28;;;15.14;52.35
66398;BME280;54877;51.504;3.894;2023-05-02T06:47:05;102574.41;;;15.16;52.49
66398;BME280;54877;51.504;3.894;2023-05-02T06:49:31;102574.13;;;15.24;52.24
66398;BME280;54877;51.504;3.894;2023-05-02T06:51:56;102581.06;;;15.06;52.04
66398;BME280;54877;51.504;3.894;2023-05-02T06:54:22;102581.50;;;14.74;52.71
66398;BME280;54877;51.504;3.894;2023-05-02T06:56:47;102590.56;;;14.47;53.43
66398;BME280;54877;51.504;3.894;2023-05-02T06:59:12;102592.50;;;14.42;53.16
66398;BME280;54877;51.504;3.894;2023-05-02T07:01:40;102582.84;;;14.62;52.80
66398;BME280;54877;51.504;3.894;2023-05-02T07:04:05;102582.53;;;14.70;51.88
66398;BME280;54877;51.504;3.894;2023-05-02T07:06:31;102586.72;;;14.77;52.29
66398;BME280;54877;51.504;3.894;2023-05-02T07:08:57;102596.97;;;14.64;51.37
66398;BME280;54877;51.504;3.894;2023-05-02T07:11:22;102603.72;;;14.96;51.08
66398;BME280;54877;51.504;3.894;2023-05-02T07:13:49;102599.94;;;15.02;50.62
66398;BME280;54877;51.504;3.894;2023-05-02T07:16:14;102599.31;;;14.95;49.52
66398;BME280;54877;51.504;3.894;2023-05-02T07:18:40;102608.41;;;15.11;49.30
66398;BME280;54877;51.504;3.894;2023-05-02T07:21:06;102617.53;;;15.27;48.63
66398;BME280;54877;51.504;3.894;2023-05-02T07:23:32;102615.19;;;15.20;47.82
66398;BME280;54877;51.504;3.894;2023-05-02T07:25:58;102608.66;;;15.05;47.56
66398;BME280;54877;51.504;3.894;2023-05-02T07:28:23;102613.75;;;15.11;47.41
66398;BME280;54877;51.504;3.894;2023-05-02T07:30:48;102625.63;;;15.04;47.12
66398;BME280;54877;51.504;3.894;2023-05-02T07:33:14;102631.28;;;15.18;47.22
66398;BME280;54877;51.504;3.894;2023-05-02T07:35:39;102628.09;;;15.30;47.42
66398;BME280;54877;51.504;3.894;2023-05-02T07:38:05;102636.97;;;15.31;47.27
66398;BME280;54877;51.504;3.894;2023-05-02T07:40:30;102639.19;;;15.42;46.95
66398;BME280;54877;51.504;3.894;2023-05-02T07:43:02;102634.31;;;15.53;46.51
66398;BME280;54877;51.504;3.894;2023-05-02T07:45:27;102641.31;;;15.55;45.83
66398;BME280;54877;51.504;3.894;2023-05-02T07:47:53;102640.81;;;15.67;45.57
66398;BME280;54877;51.504;3.894;2023-05-02T07:50:18;102640.84;;;15.66;45.41
66398;BME280;54877;51.504;3.894;2023-05-02T07:52:43;102628.88;;;15.76;45.91
66398;BME280;54877;51.504;3.894;2023-05-02T07:55:09;102641.28;;;15.77;45.83
66398;BME280;54877;51.504;3.894;2023-05-02T07:57:34;102643.69;;;15.63;45.89
66398;BME280;54877;51.504;3.894;2023-05-02T07:59:59;102646.28;;;15.43;46.66
66398;BME280;54877;51.504;3.894;2023-05-02T08:02:25;102637.78;;;15.55;47.16
66398;BME280;54877;51.504;3.894;2023-05-02T08:04:51;102634.59;;;15.67;46.96
66398;BME280;54877;51.504;3.894;2023-05-02T08:07:16;102643.41;;;15.69;46.67
66398;BME280;54877;51.504;3.894;2023-05-02T08:09:42;102640.94;;;15.43;46.34
66398;BME280;54877;51.504;3.894;2023-05-02T08:12:07;102632.72;;;15.69;46.71
66398;BME280;54877;51.504;3.894;2023-05-02T08:14:32;102639.22;;;15.83;45.71
66398;BME280;54877;51.504;3.894;2023-05-02T08:16:58;102640.63;;;15.92;45.44
66398;BME280;54877;51.504;3.894;2023-05-02T08:19:24;102643.69;;;16.03;45.42
66398;BME280;54877;51.504;3.894;2023-05-02T08:21:50;102655.13;;;15.86;45.24
66398;BME280;54877;51.504;3.894;2023-05-02T08:24:15;102652.06;;;15.96;45.37
66398;BME280;54877;51.504;3.894;2023-05-02T08:26:43;102649.84;;;16.25;45.59
66398;BME280;54877;51.504;3.894;2023-05-02T08:29:08;102655.91;;;16.29;44.54
66398;BME280;54877;51.504;3.894;2023-05-02T08:31:35;102659.03;;;16.38;44.40
66398;BME280;54877;51.504;3.894;2023-05-02T08:34:01;102661.44;;;16.24;43.55
66398;BME280;54877;51.504;3.894;2023-05-02T08:36:26;102664.19;;;16.43;44.00
66398;BME280;54877;51.504;3.894;2023-05-02T08:38:52;102674.72;;;16.46;43.48
66398;BME280;54877;51.504;3.894;2023-05-02T08:41:18;102669.88;;;16.56;42.66
66398;BME280;54877;51.504;3.894;2023-05-02T08:43:44;102674.53;;;16.30;41.93
66398;BME280;54877;51.504;3.894;2023-05-02T08:46:11;102691.19;;;16.37;42.51
66398;BME280;54877;51.504;3.894;2023-05-02T08:48:38;102687.00;;;16.31;41.96
66398;BME280;54877;51.504;3.894;2023-05-02T08:51:09;102676.63;;;16.24;42.14
66398;BME280;54877;51.504;3.894;2023-05-02T08:53:37;102677.22;;;16.30;41.95
66398;BME280;54877;51.504;3.894;2023-05-02T08:56:05;102685.38;;;16.27;41.75
66398;BME280;54877;51.504;3.894;2023-05-02T08:58:31;102692.47;;;16.28;41.81
66398;BME280;54877;51.504;3.894;2023-05-02T09:00:57;102696.13;;;16.66;42.06
66398;BME280;54877;51.504;3.894;2023-05-02T09:03:32;102688.25;;;16.82;41.60
66398;BME280;54877;51.504;3.894;2023-05-02T09:06:05;102696.34;;;16.99;41.13
66398;BME280;54877;51.504;3.894;2023-05-02T09:08:31;102695.78;;;17.11;41.01
66398;BME280;54877;51.504;3.894;2023-05-02T09:10:58;102704.66;;;16.93;40.92
66398;BME280;54877;51.504;3.894;2023-05-02T09:13:36;102700.63;;;17.03;40.74
66398;BME280;54877;51.504;3.894;2023-05-02T09:18:29;102714.16;;;17.00;40.86
66398;BME280;54877;51.504;3.894;2023-05-02T09:20:57;102713.13;;;17.21;41.02
66398;BME280;54877;51.504;3.894;2023-05-02T09:23:33;102712.59;;;17.15;42.40
66398;BME280;54877;51.504;3.894;2023-05-02T09:25:58;102712.13;;;17.42;43.02
66398;BME280;54877;51.504;3.894;2023-05-02T09:28:38;102713.69;;;17.46;43.08
66398;BME280;54877;51.504;3.894;2023-05-02T09:31:12;102729.34;;;17.55;43.21
66398;BME280;54877;51.504;3.894;2023-05-02T09:33:39;102724.00;;;17.55;42.58
66398;BME280;54877;51.504;3.894;2023-05-02T09:36:06;102735.44;;;17.59;43.10
66398;BME280;54877;51.504;3.894;2023-05-02T09:38:33;102727.47;;;17.57;42.28
66398;BME280;54877;51.504;3.894;2023-05-02T09:40:59;102733.53;;;17.42;42.53
66398;BME280;54877;51.504;3.894;2023-05-02T09:43:27;102736.00;;;17.28;42.58
66398;BME280;54877;51.504;3.894;2023-05-02T09:46:03;102740.91;;;17.37;42.15
66398;BME280;54877;51.504;3.894;2023-05-02T09:48:31;102724.97;;;17.34;42.46
66398;BME280;54877;51.504;3.894;2023-05-02T09:50:58;102744.22;;;16.86;42.76
66398;BME280;54877;51.504;3.894;2023-05-02T09:53:24;102732.75;;;17.22;42.63
66398;BME280;54877;51.504;3.894;2023-05-02T09:56:03;102743.53;;;17.20;42.90
66398;BME280;54877;51.504;3.894;2023-05-02T09:58:29;102731.69;;;17.26;42.22
66398;BME280;54877;51.504;3.894;2023-05-02T10:00:55;102747.00;;;17.22;41.34
66398;BME280;54877;51.504;3.894;2023-05-02T10:03:21;102744.84;;;17.30;41.17
66398;BME280;54877;51.504;3.894;2023-05-02T10:05:48;102738.00;;;17.23;40.97
66398;BME280;54877;51.504;3.894;2023-05-02T10:08:14;102747.78;;;17.43;42.10
66398;BME280;54877;51.504;3.894;2023-05-02T10:10:44;102733.09;;;17.51;39.82
66398;BME280;54877;51.504;3.894;2023-05-02T10:13:12;102741.63;;;17.59;39.13
66398;BME280;54877;51.504;3.894;2023-05-02T10:15:41;102732.66;;;17.60;39.88
66398;BME280;54877;51.504;3.894;2023-05-02T10:18:11;102736.41;;;17.75;39.45
66398;BME280;54877;51.504;3.894;2023-05-02T10:20:43;102736.50;;;17.91;39.44
66398;BME280;54877;51.504;3.894;2023-05-02T10:23:14;102738.88;;;17.97;37.77
66398;BME280;54877;51.504;3.894;2023-05-02T10:25:40;102735.34;;;17.96;37.81
66398;BME280;54877;51.504;3.894;2023-05-02T10:28:06;102739.72;;;17.80;38.09
66398;BME280;54877;51.504;3.894;2023-05-02T10:30:33;102739.00;;;17.77;37.46
66398;BME280;54877;51.504;3.894;2023-05-02T10:32:59;102738.66;;;17.66;37.53
66398;BME280;54877;51.504;3.894;2023-05-02T10:35:26;102742.75;;;17.55;37.30
66398;BME280;54877;51.504;3.894;2023-05-02T10:37:52;102739.88;;;17.40;38.04
66398;BME280;54877;51.504;3.894;2023-05-02T10:40:18;102757.38;;;17.67;38.37
66398;BME280;54877;51.504;3.894;2023-05-02T10:42:44;102749.38;;;17.66;37.41
66398;BME280;54877;51.504;3.894;2023-05-02T10:45:12;102744.41;;;17.58;38.29
66398;BME280;54877;51.504;3.894;2023-05-02T10:50:46;102770.59;;;18.23;38.29
66398;BME280;54877;51.504;3.894;2023-05-02T10:58:46;102762.06;;;18.32;36.42
66398;BME280;54877;51.504;3.894;2023-05-02T11:03:57;102758.59;;;18.13;37.32
66398;BME280;54877;51.504;3.894;2023-05-02T11:06:25;102761.59;;;18.41;37.48
66398;BME280;54877;51.504;3.894;2023-05-02T11:08:51;102774.84;;;18.44;37.08
66398;BME280;54877;51.504;3.894;2023-05-02T11:14:10;102766.28;;;18.55;37.03
66398;BME280;54877;51.504;3.894;2023-05-02T11:19:21;102769.66;;;18.41;36.75
66398;BME280;54877;51.504;3.894;2023-05-02T11:21:47;102764.56;;;18.01;36.95
66398;BME280;54877;51.504;3.894;2023-05-02T11:30:07;102780.84;;;18.32;37.42
66398;BME280;54877;51.504;3.894;2023-05-02T11:35:12;102781.94;;;18.45;37.08
66398;BME280;54877;51.504;3.894;2023-05-02T11:37:42;102775.31;;;18.35;37.13
66398;BME280;54877;51.504;3.894;2023-05-02T11:40:11;102783.00;;;18.60;36.92
66398;BME280;54877;51.504;3.894;2023-05-02T11:42:37;102776.19;;;18.36;36.87
66398;BME280;54877;51.504;3.894;2023-05-02T11:45:02;102786.72;;;18.57;37.09
66398;BME280;54877;51.504;3.894;2023-05-02T11:47:28;102791.31;;;18.55;37.79
66398;BME280;54877;51.504;3.894;2023-05-02T11:49:57;102791.09;;;18.75;37.37
66398;BME280;54877;51.504;3.894;2023-05-02T11:52:24;102785.56;;;18.78;36.99
66398;BME280;54877;51.504;3.894;2023-05-02T11:54:52;102795.06;;;18.51;36.42
66398;BME280;54877;51.504;3.894;2023-05-02T11:57:19;102789.38;;;18.74;37.13
66398;BME280;54877;51.504;3.894;2023-05-02T11:59:50;102785.72;;;18.75;37.36
66398;BME280;54877;51.504;3.894;2023-05-02T12:02:15;102789.84;;;18.65;37.52
66398;BME280;54877;51.504;3.894;2023-05-02T12:04:41;102798.81;;;18.82;37.42
66398;BME280;54877;51.504;3.894;2023-05-02T12:07:09;102809.09;;;18.73;37.54
66398;BME280;54877;51.504;3.894;2023-05-02T12:09:35;102809.91;;;18.58;37.25
66398;BME280;54877;51.504;3.894;2023-05-02T12:12:00;102803.84;;;18.55;37.44
66398;BME280;54877;51.504;3.894;2023-05-02T12:14:27;102805.31;;;18.43;37.33
66398;BME280;54877;51.504;3.894;2023-05-02T12:16:54;102804.66;;;18.38;37.22
66398;BME280;54877;51.504;3.894;2023-05-02T12:19:22;102808.63;;;18.48;37.62
66398;BME280;54877;51.504;3.894;2023-05-02T12:21:47;102812.47;;;18.43;38.10
66398;BME280;54877;51.504;3.894;2023-05-02T12:24:13;102820.25;;;18.49;37.76
66398;BME280;54877;51.504;3.894;2023-05-02T12:26:39;102829.25;;;18.29;38.46
66398;BME280;54877;51.504;3.894;2023-05-02T12:29:05;102823.38;;;18.23;39.07
66398;BME280;54877;51.504;3.894;2023-05-02T12:31:32;102826.56;;;18.12;39.30
66398;BME280;54877;51.504;3.894;2023-05-02T12:33:58;102821.19;;;18.12;39.13
66398;BME280;54877;51.504;3.894;2023-05-02T12:36:25;102827.03;;;18.03;39.55
66398;BME280;54877;51.504;3.894;2023-05-02T12:38:54;102823.88;;;17.95;40.16
66398;BME280;54877;51.504;3.894;2023-05-02T12:41:37;102825.63;;;17.77;40.69
66398;BME280;54877;51.504;3.894;2023-05-02T12:44:04;102819.63;;;17.53;40.77
66398;BME280;54877;51.504;3.894;2023-05-02T12:46:31;102825.22;;;17.85;40.90
66398;BME280;54877;51.504;3.894;2023-05-02T12:51:36;102822.13;;;17.56;40.99
66398;BME280;54877;51.504;3.894;2023-05-02T12:54:02;102820.84;;;17.65;40.67
66398;BME280;54877;51.504;3.894;2023-05-02T12:56:28;102832.44;;;17.66;40.80
66398;BME280;54877;51.504;3.894;2023-05-02T12:58:56;102824.03;;;17.54;40.54
66398;BME280;54877;51.504;3.894;2023-05-02T13:01:27;102836.50;;;17.55;40.65
66398;BME280;54877;51.504;3.894;2023-05-02T13:03:53;102826.41;;;17.60;40.20
66398;BME280;54877;51.504;3.894;2023-05-02T13:06:18;102832.72;;;17.78;40.35
66398;BME280;54877;51.504;3.894;2023-05-02T13:08:43;102835.03;;;17.86;39.87
66398;BME280;54877;51.504;3.894;2023-05-02T13:11:09;102835.81;;;17.88;39.56
66398;BME280;54877;51.504;3.894;2023-05-02T13:13:34;102842.28;;;18.01;39.36
66398;BME280;54877;51.504;3.894;2023-05-02T13:16:00;102841.91;;;17.73;39.34
66398;BME280;54877;51.504;3.894;2023-05-02T13:18:25;102837.69;;;17.86;39.39
66398;BME280;54877;51.504;3.894;2023-05-02T13:20:52;102846.03;;;17.80;39.49
66398;BME280;54877;51.504;3.894;2023-05-02T13:23:17;102845.25;;;17.78;39.95
66398;BME280;54877;51.504;3.894;2023-05-02T13:25:42;102855.97;;;17.78;39.39
66398;BME280;54877;51.504;3.894;2023-05-02T13:28:08;102844.59;;;17.73;38.63
66398;BME280;54877;51.504;3.894;2023-05-02T13:30:33;102848.63;;;18.00;39.32
66398;BME280;54877;51.504;3.894;2023-05-02T13:32:58;102843.41;;;17.97;39.18
66398;BME280;54877;51.504;3.894;2023-05-02T13:35:24;102844.97;;;18.01;38.85
66398;BME280;54877;51.504;3.894;2023-05-02T13:37:50;102845.31;;;17.95;38.45
66398;BME280;54877;51.504;3.894;2023-05-02T13:40:15;102848.34;;;17.87;38.18
66398;BME280;54877;51.504;3.894;2023-05-02T13:42:41;102859.19;;;18.03;38.47